createdAt,value
2018-04-25T00:01:40.813Z,95037.03
2018-04-25T00:04:09.195Z,95039.63
2018-04-25T00:06:37.579Z,95044.47
2018-04-25T00:09:05.479Z,95044.61
2018-04-25T00:11:33.870Z,95044.14
2018-04-25T00:16:35.776Z,95053.14
2018-04-25T00:19:04.898Z,95052.98
2018-04-25T00:21:33.323Z,95050.73
2018-04-25T00:24:01.760Z,95042.91
2018-04-25T00:26:30.203Z,95042.51
2018-04-25T00:28:58.676Z,95045.38
2018-04-25T00:31:27.050Z,95050.58
2018-04-25T00:33:55.424Z,95053.00
2018-04-25T00:36:23.843Z,95052.41
2018-04-25T00:38:52.285Z,95059.84
2018-04-25T00:41:20.718Z,95060.69
2018-04-25T00:43:49.151Z,95056.28
2018-04-25T00:46:17.636Z,95057.83
2018-04-25T00:48:46.065Z,95052.02
2018-04-25T00:51:14.541Z,95054.73
2018-04-25T00:53:42.991Z,95054.03
2018-04-25T00:56:11.463Z,95056.03
2018-04-25T00:58:39.890Z,95057.42
2018-04-25T01:01:08.301Z,95058.70
2018-04-25T01:03:36.737Z,95055.92
2018-04-25T01:06:04.938Z,95055.02
2018-04-25T01:08:33.400Z,95047.97
2018-04-25T01:11:01.894Z,95048.94
2018-04-25T01:13:30.319Z,95047.20
2018-04-25T01:15:58.747Z,95048.76
2018-04-25T01:18:26.955Z,95045.20
2018-04-25T01:20:54.930Z,95041.91
2018-04-25T01:23:24.392Z,95042.94
2018-04-25T01:25:58.335Z,95037.09
2018-04-25T01:28:26.327Z,95034.77
2018-04-25T01:30:55.154Z,95032.42
2018-04-25T01:33:23.307Z,95033.86
2018-04-25T01:35:58.868Z,95036.55
2018-04-25T01:38:30.381Z,95035.34
2018-04-25T01:40:58.818Z,95036.48
2018-04-25T01:43:26.801Z,95036.73
2018-04-25T01:49:20.540Z,95053.69
2018-04-25T01:52:00.274Z,95046.13
2018-04-25T01:54:40.067Z,95041.97
2018-04-25T01:57:19.780Z,95042.70
2018-04-25T01:59:59.584Z,95045.28
2018-04-25T02:02:27.003Z,95050.16
2018-04-25T02:04:55.439Z,95054.16
2018-04-25T02:07:23.917Z,95047.19
2018-04-25T02:09:52.353Z,95052.46
2018-04-25T02:12:20.791Z,95046.08
2018-04-25T02:14:49.002Z,95044.94
2018-04-25T02:17:17.455Z,95038.91
2018-04-25T02:19:45.885Z,95043.50
2018-04-25T02:22:14.320Z,95049.09
2018-04-25T02:24:42.758Z,95051.11
2018-04-25T02:27:11.208Z,95058.14
2018-04-25T02:29:39.640Z,95052.58
2018-04-25T02:32:08.126Z,95051.56
2018-04-25T02:34:36.570Z,95051.56
2018-04-25T02:37:05.003Z,95051.52
2018-04-25T02:39:33.459Z,95055.11
2018-04-25T02:42:01.906Z,95062.22
2018-04-25T02:44:30.340Z,95059.52
2018-04-25T02:46:58.784Z,95059.77
2018-04-25T02:49:27.277Z,95054.89
2018-04-25T02:51:55.725Z,95051.72
2018-04-25T02:54:24.163Z,95056.78
2018-04-25T02:56:52.594Z,95056.27
2018-04-25T02:59:21.025Z,95059.23
2018-04-25T03:01:49.984Z,95059.48
2018-04-25T03:04:18.419Z,95059.84
2018-04-25T03:06:46.842Z,95056.84
2018-04-25T03:09:15.271Z,95062.69
2018-04-25T03:11:43.691Z,95058.75
2018-04-25T03:14:12.128Z,95064.95
2018-04-25T03:16:40.555Z,95068.21
2018-04-25T03:19:09.000Z,95068.97
2018-04-25T03:21:37.477Z,95069.37
2018-04-25T03:24:05.923Z,95061.67
2018-04-25T03:26:34.363Z,95064.50
2018-04-25T03:29:02.807Z,95066.03
2018-04-25T03:31:31.272Z,95068.30
2018-04-25T03:33:59.731Z,95059.44
2018-04-25T03:36:28.151Z,95063.41
2018-04-25T03:41:31.146Z,95064.71
2018-04-25T03:43:59.660Z,95070.95
2018-04-25T03:46:28.096Z,95068.48
2018-04-25T03:48:56.538Z,95070.50
2018-04-25T03:51:24.972Z,95073.95
2018-04-25T03:53:53.421Z,95078.94
2018-04-25T03:56:21.962Z,95082.52
2018-04-25T03:58:50.409Z,95088.39
2018-04-25T04:01:18.919Z,95092.58
2018-04-25T04:03:47.356Z,95093.65
2018-04-25T04:06:15.803Z,95090.82
2018-04-25T04:08:44.243Z,95092.87
2018-04-25T04:11:12.456Z,95086.80
2018-04-25T04:13:40.935Z,95087.55
2018-04-25T04:16:09.378Z,95089.58
2018-04-25T04:18:37.817Z,95079.86
2018-04-25T04:21:06.260Z,95088.80
2018-04-25T04:23:34.686Z,95093.80
2018-04-25T04:26:03.175Z,95089.00
2018-04-25T04:28:31.705Z,95095.65
2018-04-25T04:31:00.184Z,95095.48
2018-04-25T04:33:28.606Z,95104.11
2018-04-25T04:35:57.083Z,95102.31
2018-04-25T04:38:25.601Z,95096.08
2018-04-25T04:40:54.050Z,95102.20
2018-04-25T04:43:22.831Z,95104.47
2018-04-25T04:45:52.006Z,95099.55
2018-04-25T04:48:20.480Z,95105.73
2018-04-25T04:50:48.995Z,95103.54
2018-04-25T04:53:17.463Z,95100.69
2018-04-25T04:55:45.916Z,95098.84
2018-04-25T04:58:14.389Z,95096.92
2018-04-25T05:00:42.818Z,95099.27
2018-04-25T05:03:11.023Z,95099.02
2018-04-25T05:05:40.347Z,95093.86
2018-04-25T05:08:08.776Z,95096.34
2018-04-25T05:10:37.257Z,95105.98
2018-04-25T05:13:06.268Z,95105.09
2018-04-25T05:15:34.852Z,95103.03
2018-04-25T05:18:03.310Z,95107.50
2018-04-25T05:20:31.753Z,95106.36
2018-04-25T05:23:00.199Z,95108.36
2018-04-25T05:25:28.674Z,95105.39
2018-04-25T05:27:57.115Z,95106.77
2018-04-25T05:30:25.588Z,95106.47
2018-04-25T05:32:54.094Z,95111.87
2018-04-25T05:35:22.536Z,95113.16
2018-04-25T05:37:51.027Z,95119.53
2018-04-25T05:40:19.467Z,95121.28
2018-04-25T05:42:47.948Z,95123.99
2018-04-25T05:45:16.147Z,95124.84
2018-04-25T05:47:44.648Z,95125.98
2018-04-25T05:50:12.848Z,95128.89
2018-04-25T05:52:41.324Z,95127.55
2018-04-25T05:55:09.824Z,95131.06
2018-04-25T05:57:38.297Z,95137.64
2018-04-25T06:00:06.783Z,95142.80
2018-04-25T06:02:35.216Z,95138.38
2018-04-25T06:05:03.717Z,95142.67
2018-04-25T06:07:32.183Z,95141.47
2018-04-25T06:10:00.679Z,95142.80
2018-04-25T06:12:29.209Z,95142.62
2018-04-25T06:14:57.652Z,95149.32
2018-04-25T06:17:26.093Z,95144.08
2018-04-25T06:19:54.661Z,95144.48
2018-04-25T06:22:23.104Z,95139.30
2018-04-25T06:24:51.543Z,95144.37
2018-04-25T06:27:19.979Z,95146.79
2018-04-25T06:29:48.418Z,95137.55
2018-04-25T06:32:16.866Z,95135.56
2018-04-25T06:34:45.303Z,95127.52
2018-04-25T06:37:13.736Z,95126.22
2018-04-25T06:39:42.190Z,95133.16
2018-04-25T06:42:10.620Z,95130.45
2018-04-25T06:44:39.054Z,95125.31
2018-04-25T06:47:07.705Z,95129.11
2018-04-25T06:49:36.182Z,95130.20
2018-04-25T06:52:04.615Z,95131.34
2018-04-25T06:54:33.060Z,95128.88
2018-04-25T06:57:01.486Z,95128.95
2018-04-25T06:59:29.956Z,95130.33
2018-04-25T07:01:58.394Z,95130.61
2018-04-25T07:04:26.842Z,95131.06
2018-04-25T07:06:55.310Z,95132.56
2018-04-25T07:09:23.807Z,95128.00
2018-04-25T07:11:52.313Z,95131.23
2018-04-25T07:14:21.371Z,95133.72
2018-04-25T07:16:49.863Z,95138.17
2018-04-25T07:19:18.178Z,95133.73
2018-04-25T07:21:46.655Z,95137.16
2018-04-25T07:24:15.136Z,95135.38
2018-04-25T07:26:43.631Z,95138.03
2018-04-25T07:29:12.087Z,95140.32
2018-04-25T07:31:40.573Z,95142.47
2018-04-25T07:34:09.374Z,95146.20
2018-04-25T07:36:37.828Z,95145.27
2018-04-25T07:39:06.035Z,95143.02
2018-04-25T07:41:34.502Z,95142.53
2018-04-25T07:44:03.179Z,95136.53
2018-04-25T07:46:31.446Z,95142.66
2018-04-25T07:49:01.020Z,95136.16
2018-04-25T07:51:29.451Z,95144.86
2018-04-25T07:53:57.922Z,95138.29
2018-04-25T07:56:26.387Z,95136.61
2018-04-25T07:58:55.092Z,95138.92
2018-04-25T08:01:23.589Z,95136.86
2018-04-25T08:03:52.074Z,95129.41
2018-04-25T08:06:20.551Z,95129.09
2018-04-25T08:08:49.010Z,95126.89
2018-04-25T08:11:17.479Z,95125.36
2018-04-25T08:13:57.256Z,95121.63
2018-04-25T08:16:36.977Z,95111.88
2018-04-25T08:19:26.443Z,95114.20
2018-04-25T08:21:54.871Z,95114.98
2018-04-25T08:24:23.376Z,95110.05
2018-04-25T08:26:51.808Z,95113.13
2018-04-25T08:29:20.244Z,95101.52
2018-04-25T08:31:48.733Z,95108.66
2018-04-25T08:34:17.203Z,95104.78
2018-04-25T08:36:45.856Z,95097.19
2018-04-25T08:39:14.334Z,95103.47
2018-04-25T08:41:43.005Z,95092.55
2018-04-25T08:44:11.466Z,95095.67
2018-04-25T08:46:39.890Z,95094.75
2018-04-25T08:49:08.351Z,95096.12
2018-04-25T08:51:36.858Z,95087.95
2018-04-25T08:54:05.318Z,95085.98
2018-04-25T08:56:34.386Z,95090.27
2018-04-25T08:59:02.849Z,95087.31
2018-04-25T09:01:31.318Z,95086.91
2018-04-25T09:04:00.091Z,95084.11
2018-04-25T09:06:28.567Z,95086.11
2018-04-25T09:08:57.047Z,95082.90
2018-04-25T09:11:25.491Z,95074.34
2018-04-25T09:13:54.896Z,95072.49
2018-04-25T09:16:24.566Z,95067.83
2018-04-25T09:18:52.995Z,95065.81
2018-04-25T09:21:21.174Z,95062.63
2018-04-25T09:23:49.630Z,95060.98
2018-04-25T09:26:18.111Z,95052.41
2018-04-25T09:28:46.563Z,95049.17
2018-04-25T09:31:14.989Z,95055.56
2018-04-25T09:33:43.447Z,95054.13
2018-04-25T09:36:11.899Z,95046.87
2018-04-25T09:38:40.344Z,95046.06
2018-04-25T09:41:10.616Z,95038.98
2018-04-25T09:43:39.086Z,95031.59
2018-04-25T09:46:07.531Z,95035.59
2018-04-25T09:48:36.501Z,95028.14
2018-04-25T09:51:04.816Z,95027.20
2018-04-25T09:53:33.252Z,95022.09
2018-04-25T09:56:01.682Z,95026.09
2018-04-25T09:58:30.148Z,95017.53
2018-04-25T10:00:58.350Z,95008.83
2018-04-25T10:03:26.655Z,95007.86
2018-04-25T10:05:55.108Z,95008.16
2018-04-25T10:08:23.505Z,95001.55
2018-04-25T10:10:51.969Z,95000.61
2018-04-25T10:13:20.497Z,94995.63
2018-04-25T10:15:48.890Z,94989.68
2018-04-25T10:18:17.288Z,94984.45
2018-04-25T10:20:45.710Z,94980.25
2018-04-25T10:23:14.089Z,94985.94
2018-04-25T10:28:17.009Z,94975.96
2018-04-25T10:30:45.411Z,94969.34
2018-04-25T10:33:13.916Z,94967.86
2018-04-25T10:35:42.283Z,94970.09
2018-04-25T10:38:10.668Z,94959.77
2018-04-25T10:40:39.034Z,94967.22
2018-04-25T10:43:07.432Z,94960.09
2018-04-25T10:45:35.804Z,94962.45
2018-04-25T10:48:04.166Z,94958.61
2018-04-25T10:50:32.560Z,94956.55
2018-04-25T10:53:00.931Z,94955.05
2018-04-25T10:55:29.411Z,94948.95
2018-04-25T10:57:57.903Z,94944.27
2018-04-25T11:00:26.498Z,94939.73
2018-04-25T11:02:54.860Z,94938.04
2018-04-25T11:05:23.246Z,94942.88
2018-04-25T11:07:51.626Z,94937.23
2018-04-25T11:10:20.064Z,94934.88
2018-04-25T11:12:48.443Z,94930.25
2018-04-25T11:15:16.744Z,94933.88
2018-04-25T11:17:45.133Z,94934.10
2018-04-25T11:20:13.507Z,94926.09
2018-04-25T11:22:41.886Z,94918.02
2018-04-25T11:25:10.264Z,94913.45
2018-04-25T11:27:38.639Z,94910.32
2018-04-25T11:30:07.062Z,94917.38
2018-04-25T11:32:35.454Z,94912.36
2018-04-25T11:35:03.831Z,94906.64
2018-04-25T11:37:32.215Z,94909.87
2018-04-25T11:40:00.488Z,94900.63
2018-04-25T11:42:28.871Z,94898.20
2018-04-25T11:44:57.247Z,94911.23
2018-04-25T11:47:25.745Z,94899.39
2018-04-25T11:49:53.877Z,94891.21
2018-04-25T11:52:22.238Z,94879.74
2018-04-25T11:54:50.638Z,94880.35
2018-04-25T11:57:19.042Z,94879.84
2018-04-25T11:59:47.439Z,94877.70
2018-04-25T12:02:15.818Z,94869.76
2018-04-25T12:04:45.114Z,94872.98
2018-04-25T12:07:14.011Z,94875.56
2018-04-25T12:09:42.410Z,94861.91
2018-04-25T12:12:10.820Z,94853.54
2018-04-25T12:14:39.204Z,94853.45
2018-04-25T12:17:07.571Z,94848.48
2018-04-25T12:19:35.955Z,94849.91
2018-04-25T12:22:04.321Z,94840.09
2018-04-25T12:24:32.690Z,94838.81
2018-04-25T12:27:01.075Z,94837.55
2018-04-25T12:29:29.555Z,94827.88
2018-04-25T12:31:57.937Z,94827.67
2018-04-25T12:34:26.353Z,94825.61
2018-04-25T12:36:54.726Z,94823.42
2018-04-25T12:39:23.102Z,94823.28
2018-04-25T12:41:51.507Z,94816.68
2018-04-25T12:44:19.885Z,94822.17
2018-04-25T12:46:48.264Z,94820.34
2018-04-25T12:49:16.686Z,94817.84
2018-04-25T12:51:45.115Z,94810.07
2018-04-25T12:54:13.487Z,94812.03
2018-04-25T12:56:41.823Z,94815.92
2018-04-25T12:59:10.206Z,94807.09
2018-04-25T13:01:38.696Z,94820.31
2018-04-25T13:04:07.151Z,94810.50
2018-04-25T13:06:35.522Z,94801.34
2018-04-25T13:09:03.784Z,94801.89
2018-04-25T13:11:32.339Z,94803.42
2018-04-25T13:14:00.754Z,94808.39
2018-04-25T13:16:29.163Z,94804.06
2018-04-25T13:18:57.542Z,94809.73
2018-04-25T13:21:26.007Z,94810.78
2018-04-25T13:26:41.487Z,94806.64
2018-04-25T13:29:09.798Z,94801.86
2018-04-25T13:31:38.311Z,94793.84
2018-04-25T13:34:06.695Z,94797.06
2018-04-25T13:36:35.115Z,94792.38
2018-04-25T13:39:03.246Z,94792.38
2018-04-25T13:41:31.842Z,94794.38
2018-04-25T13:44:00.027Z,94792.12
2018-04-25T13:46:28.168Z,94792.30
2018-04-25T13:48:56.533Z,94782.86
2018-04-25T13:51:24.946Z,94786.46
2018-04-25T13:53:53.340Z,94774.88
2018-04-25T13:56:21.740Z,94777.42
2018-04-25T13:58:50.130Z,94775.56
2018-04-25T14:01:18.547Z,94772.36
2018-04-25T14:03:46.922Z,94772.29
2018-04-25T14:06:15.405Z,94771.20
2018-04-25T14:08:43.909Z,94770.79
2018-04-25T14:11:12.092Z,94766.52
2018-04-25T14:13:40.472Z,94764.33
2018-04-25T14:16:08.880Z,94763.53
2018-04-25T14:18:37.290Z,94759.89
2018-04-25T14:21:05.713Z,94772.14
2018-04-25T14:23:34.092Z,94759.17
2018-04-25T14:26:02.465Z,94760.99
2018-04-25T14:28:30.879Z,94757.18
2018-04-25T14:30:59.348Z,94761.73
2018-04-25T14:33:27.735Z,94759.51
2018-04-25T14:35:56.132Z,94771.02
2018-04-25T14:38:24.564Z,94768.10
2018-04-25T14:40:53.153Z,94762.45
2018-04-25T14:43:21.533Z,94768.08
2018-04-25T14:45:49.961Z,94760.97
2018-04-25T14:48:18.344Z,94770.84
2018-04-25T14:50:46.808Z,94766.77
2018-04-25T14:53:15.187Z,94765.22
2018-04-25T14:55:43.576Z,94770.05
2018-04-25T14:58:11.717Z,94782.47
2018-04-25T15:00:40.127Z,94777.85
2018-04-25T15:03:08.502Z,94771.14
2018-04-25T15:05:36.915Z,94771.79
2018-04-25T15:08:05.047Z,94773.95
2018-04-25T15:10:33.468Z,94764.68
2018-04-25T15:13:01.854Z,94762.72
2018-04-25T15:15:31.071Z,94768.97
2018-04-25T15:17:59.601Z,94764.13
2018-04-25T15:20:27.970Z,94753.16
2018-04-25T15:22:56.338Z,94753.27
2018-04-25T15:25:24.865Z,94749.00
2018-04-25T15:27:53.363Z,94748.11
2018-04-25T15:30:21.790Z,94746.19
2018-04-25T15:32:50.167Z,94745.90
2018-04-25T15:35:18.546Z,94751.53
2018-04-25T15:37:47.014Z,94747.71
2018-04-25T15:40:15.795Z,94739.08
2018-04-25T15:42:44.184Z,94738.17
2018-04-25T15:45:12.327Z,94734.82
2018-04-25T15:47:40.716Z,94733.62
2018-04-25T15:50:09.121Z,94736.23
2018-04-25T15:52:37.541Z,94728.90
2018-04-25T15:55:05.961Z,94729.38
2018-04-25T15:57:34.363Z,94730.83
2018-04-25T16:00:04.079Z,94732.72
2018-04-25T16:02:32.441Z,94729.30
2018-04-25T16:05:00.827Z,94726.97
2018-04-25T16:07:29.190Z,94730.56
2018-04-25T16:09:57.592Z,94728.10
2018-04-25T16:12:25.996Z,94722.92
2018-04-25T16:14:54.134Z,94725.56
2018-04-25T16:17:22.501Z,94725.39
2018-04-25T16:19:50.947Z,94730.11
2018-04-25T16:22:19.398Z,94725.81
2018-04-25T16:24:47.793Z,94730.88
2018-04-25T16:27:15.933Z,94732.10
2018-04-25T16:29:44.294Z,94733.84
2018-04-25T16:32:12.723Z,94737.44
2018-04-25T16:34:41.108Z,94742.98
2018-04-25T16:37:09.257Z,94736.50
2018-04-25T16:39:37.622Z,94739.34
2018-04-25T16:42:06.023Z,94741.05
2018-04-25T16:44:34.439Z,94739.94
2018-04-25T16:47:02.821Z,94739.87
2018-04-25T16:49:31.191Z,94743.45
2018-04-25T16:51:59.595Z,94741.09
2018-04-25T16:54:27.985Z,94738.40
2018-04-25T16:56:56.400Z,94734.97
2018-04-25T16:59:24.541Z,94747.06
2018-04-25T17:01:52.923Z,94746.69
2018-04-25T17:04:21.288Z,94745.44
2018-04-25T17:06:49.681Z,94744.86
2018-04-25T17:09:18.087Z,94747.00
2018-04-25T17:11:46.450Z,94752.44
2018-04-25T17:14:14.822Z,94747.28
2018-04-25T17:16:43.195Z,94746.42
2018-04-25T17:19:11.550Z,94752.81
2018-04-25T17:21:40.792Z,94756.69
2018-04-25T17:24:08.954Z,94757.08
2018-04-25T17:26:37.378Z,94757.09
2018-04-25T17:29:05.766Z,94758.83
2018-04-25T17:31:34.156Z,94767.66
2018-04-25T17:34:02.539Z,94760.97
2018-04-25T17:36:30.910Z,94760.10
2018-04-25T17:38:59.327Z,94757.28
2018-04-25T17:41:28.659Z,94767.45
2018-04-25T17:43:57.100Z,94762.70
2018-04-25T17:46:25.615Z,94766.10
2018-04-25T17:48:53.983Z,94762.12
2018-04-25T17:51:22.424Z,94770.45
2018-04-25T17:53:50.846Z,94772.77
2018-04-25T17:56:19.223Z,94774.95
2018-04-25T17:58:47.648Z,94780.33
2018-04-25T18:01:16.034Z,94782.87
2018-04-25T18:03:44.408Z,94777.92
2018-04-25T18:06:13.379Z,94789.38
2018-04-25T18:08:41.766Z,94790.95
2018-04-25T18:11:10.187Z,94794.98
2018-04-25T18:13:38.564Z,94803.23
2018-04-25T18:16:06.936Z,94804.44
2018-04-25T18:18:35.353Z,94809.78
2018-04-25T18:21:03.758Z,94811.88
2018-04-25T18:23:32.136Z,94818.02
2018-04-25T18:26:00.575Z,94823.91
2018-04-25T18:28:28.983Z,94824.80
2018-04-25T18:30:57.406Z,94822.66
2018-04-25T18:33:25.810Z,94829.08
2018-04-25T18:35:54.398Z,94834.72
2018-04-25T18:38:22.786Z,94841.55
2018-04-25T18:40:51.225Z,94839.55
2018-04-25T18:43:19.645Z,94839.14
2018-04-25T18:45:48.033Z,94839.21
2018-04-25T18:48:16.539Z,94841.91
2018-04-25T18:50:44.943Z,94843.56
2018-04-25T18:53:13.323Z,94846.25
2018-04-25T18:55:41.712Z,94845.84
2018-04-25T18:58:10.087Z,94843.30
2018-04-25T19:00:38.550Z,94842.13
2018-04-25T19:03:06.994Z,94847.87
2018-04-25T19:05:35.546Z,94850.27
2018-04-25T19:08:03.956Z,94848.52
2018-04-25T19:10:32.439Z,94846.91
2018-04-25T19:13:00.867Z,94850.64
2018-04-25T19:15:29.857Z,94847.59
2018-04-25T19:17:58.228Z,94854.79
2018-04-25T19:20:26.639Z,94849.98
2018-04-25T19:22:54.818Z,94844.64
2018-04-25T19:25:23.189Z,94849.99
2018-04-25T19:27:51.555Z,94855.05
2018-04-25T19:30:22.610Z,94860.00
2018-04-25T19:32:50.987Z,94858.52
2018-04-25T19:35:19.131Z,94858.14
2018-04-25T19:37:47.551Z,94854.53
2018-04-25T19:40:15.930Z,94852.25
2018-04-25T19:42:59.260Z,94856.27
2018-04-25T19:45:27.554Z,94857.86
2018-04-25T19:47:55.948Z,94865.19
2018-04-25T19:50:24.369Z,94863.58
2018-04-25T19:52:52.814Z,94858.38
2018-04-25T19:55:21.252Z,94864.92
2018-04-25T19:57:49.622Z,94863.14
2018-04-25T20:00:18.054Z,94871.09
2018-04-25T20:02:46.429Z,94874.96
2018-04-25T20:05:14.805Z,94870.56
2018-04-25T20:07:43.211Z,94868.83
2018-04-25T20:10:11.635Z,94872.39
2018-04-25T20:12:40.006Z,94872.91
2018-04-25T20:15:08.435Z,94877.28
2018-04-25T20:17:36.821Z,94877.67
2018-04-25T20:20:04.782Z,94875.82
2018-04-25T20:22:33.310Z,94875.64
2018-04-25T20:25:01.695Z,94881.78
2018-04-25T20:27:30.074Z,94878.70
2018-04-25T20:29:58.518Z,94879.36
2018-04-25T20:32:26.901Z,94885.06
2018-04-25T20:34:55.323Z,94881.15
2018-04-25T20:37:26.105Z,94884.03
2018-04-25T20:39:54.490Z,94888.65
2018-04-25T20:42:22.924Z,94889.23
2018-04-25T20:44:51.307Z,94892.38
2018-04-25T20:47:19.682Z,94886.79
2018-04-25T20:49:48.090Z,94891.71
2018-04-25T20:52:16.491Z,94887.69
2018-04-25T20:54:45.063Z,94890.86
2018-04-25T20:57:13.445Z,94887.52
2018-04-25T20:59:41.833Z,94893.66
2018-04-25T21:02:10.202Z,94893.38
2018-04-25T21:04:38.624Z,94887.30
2018-04-25T21:07:06.999Z,94888.00
2018-04-25T21:09:35.424Z,94897.10
2018-04-25T21:12:03.848Z,94888.29
2018-04-25T21:14:32.224Z,94885.41
2018-04-25T21:17:00.634Z,94887.34
2018-04-25T21:19:29.060Z,94889.25
2018-04-25T21:21:57.476Z,94884.64
2018-04-25T21:24:25.654Z,94888.38
2018-04-25T21:26:53.813Z,94887.78
2018-04-25T21:29:22.250Z,94885.48
2018-04-25T21:31:50.687Z,94885.45
2018-04-25T21:34:19.136Z,94889.39
2018-04-25T21:36:47.511Z,94884.00
2018-04-25T21:39:15.935Z,94891.42
2018-04-25T21:41:44.354Z,94888.12
2018-04-25T21:44:12.725Z,94893.83
2018-04-25T21:46:41.097Z,94891.87
2018-04-25T21:49:09.472Z,94888.88
2018-04-25T21:51:37.897Z,94893.43
2018-04-25T21:54:06.338Z,94890.57
2018-04-25T21:56:34.715Z,94892.22
2018-04-25T21:59:03.102Z,94902.69
2018-04-25T22:01:31.525Z,94894.83
2018-04-25T22:03:59.965Z,94900.42
2018-04-25T22:06:28.352Z,94901.11
2018-04-25T22:08:56.743Z,94899.38
2018-04-25T22:11:25.120Z,94907.00
2018-04-25T22:13:53.521Z,94900.67
2018-04-25T22:16:22.187Z,94905.55
2018-04-25T22:18:50.408Z,94907.69
2018-04-25T22:21:18.788Z,94902.37
2018-04-25T22:23:47.177Z,94907.77
2018-04-25T22:26:15.579Z,94910.09
2018-04-25T22:28:43.972Z,94908.91
2018-04-25T22:31:12.357Z,94905.98
2018-04-25T22:33:40.750Z,94906.90
2018-04-25T22:36:09.120Z,94904.95
2018-04-25T22:38:37.512Z,94907.35
2018-04-25T22:41:05.900Z,94902.16
2018-04-25T22:43:34.286Z,94891.12
2018-04-25T22:46:02.703Z,94896.94
2018-04-25T22:48:31.075Z,94895.52
2018-04-25T22:50:59.455Z,94896.95
2018-04-25T22:53:27.851Z,94897.88
2018-04-25T22:55:56.222Z,94899.38
2018-04-25T22:58:24.627Z,94890.53
2018-04-25T23:00:52.998Z,94890.20
2018-04-25T23:03:21.377Z,94887.13
2018-04-25T23:05:49.767Z,94887.60
2018-04-25T23:08:18.163Z,94892.05
2018-04-25T23:10:46.745Z,94889.05
2018-04-25T23:13:15.140Z,94884.84
2018-04-25T23:15:43.516Z,94881.91
2018-04-25T23:18:11.905Z,94888.08
2018-04-25T23:20:40.290Z,94889.34
2018-04-25T23:23:08.662Z,94883.12
2018-04-25T23:25:37.039Z,94878.85
2018-04-25T23:28:05.437Z,94881.17
2018-04-25T23:30:33.868Z,94882.64
2018-04-25T23:33:02.257Z,94884.04
2018-04-25T23:35:30.627Z,94882.62
2018-04-25T23:37:58.991Z,94880.63
2018-04-25T23:40:27.361Z,94881.27
2018-04-25T23:42:55.743Z,94880.86
2018-04-25T23:45:24.129Z,94883.61
2018-04-25T23:47:52.551Z,94887.20
2018-04-25T23:50:20.923Z,94880.55
2018-04-25T23:52:49.330Z,94873.34
2018-04-25T23:55:17.712Z,94874.85
2018-04-25T23:57:46.139Z,94875.66
